sensor_id;sensor_type;location;lat;lon;timestamp;P1;durP1;ratioP1;P2;durP2;ratioP2
3443;SDS011;1736;52.068;6.968;2023-06-26T00:01:17;9.87;;;7.57;;
3443;SDS011;1736;52.068;6.968;2023-06-26T00:03:45;9.40;;;8.40;;
3443;SDS011;1736;52.068;6.968;2023-06-26T00:06:12;8.80;;;7.87;;
3443;SDS011;1736;52.068;6.968;2023-06-26T00:08:39;9.70;;;8.20;;
3443;SDS011;1736;52.068;6.968;2023-06-26T00:11:06;12.80;;;9.03;;
3443;SDS011;1736;52.068;6.968;2023-06-26T00:13:34;11.10;;;9.33;;
3443;SDS011;1736;52.068;6.968;2023-06-26T00:16:00;9.80;;;8.70;;
3443;SDS011;1736;52.068;6.968;2023-06-26T00:18:28;10.13;;;8.50;;
3443;SDS011;1736;52.068;6.968;2023-06-26T00:20:54;10.90;;;8.50;;
3443;SDS011;1736;52.068;6.968;2023-06-26T00:23:21;9.50;;;8.47;;
3443;SDS011;1736;52.068;6.968;2023-06-26T00:25:48;8.83;;;7.93;;
3443;SDS011;1736;52.068;6.968;2023-06-26T00:28:14;8.83;;;7.93;;
3443;SDS011;1736;52.068;6.968;2023-06-26T00:30:42;9.77;;;8.77;;
3443;SDS011;1736;52.068;6.968;2023-06-26T00:33:08;10.10;;;9.10;;
3443;SDS011;1736;52.068;6.968;2023-06-26T00:35:35;9.83;;;8.80;;
3443;SDS011;1736;52.068;6.968;2023-06-26T00:38:01;12.10;;;8.87;;
3443;SDS011;1736;52.068;6.968;2023-06-26T00:40:28;10.70;;;8.80;;
3443;SDS011;1736;52.068;6.968;2023-06-26T00:42:54;9.37;;;8.37;;
3443;SDS011;1736;52.068;6.968;2023-06-26T00:45:21;9.80;;;8.80;;
3443;SDS011;1736;52.068;6.968;2023-06-26T00:47:49;9.87;;;8.83;;
3443;SDS011;1736;52.068;6.968;2023-06-26T00:50:15;11.60;;;8.83;;
3443;SDS011;1736;52.068;6.968;2023-06-26T00:52:42;11.53;;;10.07;;
3443;SDS011;1736;52.068;6.968;2023-06-26T00:55:09;9.70;;;8.70;;
3443;SDS011;1736;52.068;6.968;2023-06-26T00:57:36;10.13;;;8.50;;
3443;SDS011;1736;52.068;6.968;2023-06-26T01:00:03;9.83;;;8.83;;
3443;SDS011;1736;52.068;6.968;2023-06-26T01:02:30;9.77;;;8.73;;
3443;SDS011;1736;52.068;6.968;2023-06-26T01:05:00;9.00;;;8.10;;
3443;SDS011;1736;52.068;6.968;2023-06-26T01:07:28;9.70;;;8.23;;
3443;SDS011;1736;52.068;6.968;2023-06-26T01:09:57;13.40;;;8.93;;
3443;SDS011;1736;52.068;6.968;2023-06-26T01:12:24;9.40;;;8.40;;
3443;SDS011;1736;52.068;6.968;2023-06-26T01:14:51;10.37;;;9.10;;
3443;SDS011;1736;52.068;6.968;2023-06-26T01:17:17;12.07;;;9.27;;
3443;SDS011;1736;52.068;6.968;2023-06-26T01:19:45;11.40;;;8.63;;
3443;SDS011;1736;52.068;6.968;2023-06-26T01:22:16;9.97;;;8.97;;
3443;SDS011;1736;52.068;6.968;2023-06-26T01:24:53;9.37;;;8.20;;
3443;SDS011;1736;52.068;6.968;2023-06-26T01:27:29;9.73;;;8.20;;
3443;SDS011;1736;52.068;6.968;2023-06-26T01:29:58;13.93;;;8.60;;
3443;SDS011;1736;52.068;6.968;2023-06-26T01:32:28;10.30;;;9.03;;
3443;SDS011;1736;52.068;6.968;2023-06-26T01:34:56;12.03;;;8.93;;
3443;SDS011;1736;52.068;6.968;2023-06-26T01:37:23;8.53;;;7.63;;
3443;SDS011;1736;52.068;6.968;2023-06-26T01:39:50;11.00;;;9.00;;
3443;SDS011;1736;52.068;6.968;2023-06-26T01:42:16;10.10;;;8.00;;
3443;SDS011;1736;52.068;6.968;2023-06-26T01:44:45;12.40;;;8.80;;
3443;SDS011;1736;52.068;6.968;2023-06-26T01:47:14;11.53;;;8.97;;
3443;SDS011;1736;52.068;6.968;2023-06-26T01:49:46;10.23;;;9.00;;
3443;SDS011;1736;52.068;6.968;2023-06-26T01:52:18;11.93;;;9.00;;
3443;SDS011;1736;52.068;6.968;2023-06-26T01:54:50;11.73;;;8.50;;
3443;SDS011;1736;52.068;6.968;2023-06-26T01:57:21;14.60;;;8.73;;
3443;SDS011;1736;52.068;6.968;2023-06-26T01:59:54;10.37;;;8.70;;
3443;SDS011;1736;52.068;6.968;2023-06-26T02:02:22;9.80;;;8.40;;
3443;SDS011;1736;52.068;6.968;2023-06-26T02:04:50;9.60;;;8.23;;
3443;SDS011;1736;52.068;6.968;2023-06-26T02:07:17;10.73;;;9.50;;
3443;SDS011;1736;52.068;6.968;2023-06-26T02:09:43;13.03;;;9.90;;
3443;SDS011;1736;52.068;6.968;2023-06-26T02:12:10;12.77;;;9.93;;
3443;SDS011;1736;52.068;6.968;2023-06-26T02:14:36;9.37;;;8.40;;
3443;SDS011;1736;52.068;6.968;2023-06-26T02:17:04;12.63;;;9.30;;
3443;SDS011;1736;52.068;6.968;2023-06-26T02:19:33;12.90;;;9.60;;
3443;SDS011;1736;52.068;6.968;2023-06-26T02:22:00;11.43;;;10.00;;
3443;SDS011;1736;52.068;6.968;2023-06-26T02:24:26;16.20;;;9.13;;
3443;SDS011;1736;52.068;6.968;2023-06-26T02:26:55;10.30;;;9.10;;
3443;SDS011;1736;52.068;6.968;2023-06-26T02:29:21;10.90;;;9.53;;
3443;SDS011;1736;52.068;6.968;2023-06-26T02:31:48;10.30;;;9.20;;
3443;SDS011;1736;52.068;6.968;2023-06-26T02:34:16;15.57;;;9.23;;
3443;SDS011;1736;52.068;6.968;2023-06-26T02:36:42;10.77;;;9.67;;
3443;SDS011;1736;52.068;6.968;2023-06-26T02:39:09;13.07;;;10.00;;
3443;SDS011;1736;52.068;6.968;2023-06-26T02:41:36;14.80;;;9.83;;
3443;SDS011;1736;52.068;6.968;2023-06-26T02:44:02;13.40;;;11.27;;
3443;SDS011;1736;52.068;6.968;2023-06-26T02:46:29;14.00;;;11.00;;
3443;SDS011;1736;52.068;6.968;2023-06-26T02:48:55;13.60;;;9.93;;
3443;SDS011;1736;52.068;6.968;2023-06-26T02:51:23;12.70;;;10.77;;
3443;SDS011;1736;52.068;6.968;2023-06-26T02:53:50;12.13;;;10.60;;
3443;SDS011;1736;52.068;6.968;2023-06-26T02:56:16;14.87;;;10.70;;
3443;SDS011;1736;52.068;6.968;2023-06-26T02:58:43;11.53;;;10.33;;
3443;SDS011;1736;52.068;6.968;2023-06-26T03:01:10;15.23;;;10.80;;
3443;SDS011;1736;52.068;6.968;2023-06-26T03:03:37;14.70;;;11.60;;
3443;SDS011;1736;52.068;6.968;2023-06-26T03:06:06;15.73;;;10.77;;
3443;SDS011;1736;52.068;6.968;2023-06-26T03:08:35;12.60;;;10.23;;
3443;SDS011;1736;52.068;6.968;2023-06-26T03:11:03;16.50;;;11.60;;
3443;SDS011;1736;52.068;6.968;2023-06-26T03:13:29;12.80;;;10.60;;
3443;SDS011;1736;52.068;6.968;2023-06-26T03:15:55;13.80;;;10.70;;
3443;SDS011;1736;52.068;6.968;2023-06-26T03:18:22;16.83;;;10.33;;
3443;SDS011;1736;52.068;6.968;2023-06-26T03:20:48;18.30;;;11.73;;
3443;SDS011;1736;52.068;6.968;2023-06-26T03:23:15;15.40;;;11.03;;
3443;SDS011;1736;52.068;6.968;2023-06-26T03:25:43;14.90;;;10.70;;
3443;SDS011;1736;52.068;6.968;2023-06-26T03:28:10;12.97;;;11.00;;
3443;SDS011;1736;52.068;6.968;2023-06-26T03:30:36;13.50;;;10.13;;
3443;SDS011;1736;52.068;6.968;2023-06-26T03:33:03;12.17;;;9.57;;
3443;SDS011;1736;52.068;6.968;2023-06-26T03:35:29;18.30;;;11.93;;
3443;SDS011;1736;52.068;6.968;2023-06-26T03:37:56;14.47;;;10.83;;
3443;SDS011;1736;52.068;6.968;2023-06-26T03:40:23;15.30;;;11.47;;
3443;SDS011;1736;52.068;6.968;2023-06-26T03:42:51;15.30;;;11.73;;
3443;SDS011;1736;52.068;6.968;2023-06-26T03:45:17;14.57;;;11.50;;
3443;SDS011;1736;52.068;6.968;2023-06-26T03:47:44;13.57;;;11.87;;
3443;SDS011;1736;52.068;6.968;2023-06-26T03:50:13;22.87;;;12.80;;
3443;SDS011;1736;52.068;6.968;2023-06-26T03:52:40;13.80;;;11.63;;
3443;SDS011;1736;52.068;6.968;2023-06-26T03:55:06;20.27;;;12.43;;
3443;SDS011;1736;52.068;6.968;2023-06-26T03:57:33;14.20;;;11.50;;
3443;SDS011;1736;52.068;6.968;2023-06-26T04:00:02;16.10;;;12.20;;
3443;SDS011;1736;52.068;6.968;2023-06-26T04:02:33;15.33;;;11.77;;
3443;SDS011;1736;52.068;6.968;2023-06-26T04:05:00;18.07;;;11.87;;
3443;SDS011;1736;52.068;6.968;2023-06-26T04:07:26;16.13;;;11.30;;
3443;SDS011;1736;52.068;6.968;2023-06-26T04:09:53;13.83;;;11.30;;
3443;SDS011;1736;52.068;6.968;2023-06-26T04:12:19;15.73;;;11.67;;
3443;SDS011;1736;52.068;6.968;2023-06-26T04:14:46;16.37;;;12.30;;
3443;SDS011;1736;52.068;6.968;2023-06-26T04:17:14;16.10;;;11.77;;
3443;SDS011;1736;52.068;6.968;2023-06-26T04:19:40;15.30;;;12.13;;
3443;SDS011;1736;52.068;6.968;2023-06-26T04:22:07;12.30;;;10.73;;
3443;SDS011;1736;52.068;6.968;2023-06-26T04:24:33;14.23;;;11.70;;
3443;SDS011;1736;52.068;6.968;2023-06-26T04:27:00;14.37;;;11.10;;
3443;SDS011;1736;52.068;6.968;2023-06-26T04:29:26;17.70;;;12.87;;
3443;SDS011;1736;52.068;6.968;2023-06-26T04:31:53;14.77;;;11.47;;
3443;SDS011;1736;52.068;6.968;2023-06-26T04:34:24;14.83;;;11.83;;
3443;SDS011;1736;52.068;6.968;2023-06-26T04:36:51;14.13;;;11.30;;
3443;SDS011;1736;52.068;6.968;2023-06-26T04:39:17;16.30;;;11.90;;
3443;SDS011;1736;52.068;6.968;2023-06-26T04:41:44;17.47;;;12.40;;
3443;SDS011;1736;52.068;6.968;2023-06-26T04:44:10;15.23;;;11.10;;
3443;SDS011;1736;52.068;6.968;2023-06-26T04:46:37;11.90;;;10.60;;
3443;SDS011;1736;52.068;6.968;2023-06-26T04:49:06;14.10;;;10.60;;
3443;SDS011;1736;52.068;6.968;2023-06-26T04:51:33;11.37;;;9.03;;
3443;SDS011;1736;52.068;6.968;2023-06-26T04:54:05;12.20;;;10.43;;
3443;SDS011;1736;52.068;6.968;2023-06-26T04:56:31;12.10;;;10.60;;
3443;SDS011;1736;52.068;6.968;2023-06-26T04:58:58;14.47;;;10.40;;
3443;SDS011;1736;52.068;6.968;2023-06-26T05:01:25;11.03;;;9.40;;
3443;SDS011;1736;52.068;6.968;2023-06-26T05:03:54;13.97;;;9.90;;
3443;SDS011;1736;52.068;6.968;2023-06-26T05:06:21;15.30;;;8.73;;
3443;SDS011;1736;52.068;6.968;2023-06-26T05:08:49;11.30;;;8.47;;
3443;SDS011;1736;52.068;6.968;2023-06-26T05:11:16;11.10;;;7.20;;
3443;SDS011;1736;52.068;6.968;2023-06-26T05:13:42;11.33;;;7.30;;
3443;SDS011;1736;52.068;6.968;2023-06-26T05:16:09;10.53;;;6.70;;
3443;SDS011;1736;52.068;6.968;2023-06-26T05:18:36;7.53;;;6.73;;
3443;SDS011;1736;52.068;6.968;2023-06-26T05:21:03;7.60;;;6.23;;
3443;SDS011;1736;52.068;6.968;2023-06-26T05:23:30;8.60;;;6.30;;
3443;SDS011;1736;52.068;6.968;2023-06-26T05:25:59;7.67;;;6.40;;
3443;SDS011;1736;52.068;6.968;2023-06-26T05:28:27;15.40;;;5.57;;
3443;SDS011;1736;52.068;6.968;2023-06-26T05:30:56;8.47;;;5.60;;
3443;SDS011;1736;52.068;6.968;2023-06-26T05:33:24;7.90;;;5.37;;
3443;SDS011;1736;52.068;6.968;2023-06-26T05:35:52;11.37;;;6.10;;
3443;SDS011;1736;52.068;6.968;2023-06-26T05:38:20;15.60;;;6.17;;
3443;SDS011;1736;52.068;6.968;2023-06-26T05:40:47;11.17;;;6.20;;
3443;SDS011;1736;52.068;6.968;2023-06-26T05:43:15;11.70;;;5.90;;
3443;SDS011;1736;52.068;6.968;2023-06-26T05:45:46;9.50;;;5.03;;
3443;SDS011;1736;52.068;6.968;2023-06-26T05:48:12;7.90;;;4.57;;
3443;SDS011;1736;52.068;6.968;2023-06-26T05:50:39;7.03;;;4.90;;
3443;SDS011;1736;52.068;6.968;2023-06-26T05:53:07;6.83;;;5.20;;
3443;SDS011;1736;52.068;6.968;2023-06-26T05:55:34;15.23;;;5.83;;
3443;SDS011;1736;52.068;6.968;2023-06-26T05:58:01;9.23;;;5.20;;
3443;SDS011;1736;52.068;6.968;2023-06-26T06:00:30;16.73;;;5.77;;
3443;SDS011;1736;52.068;6.968;2023-06-26T06:02:57;11.47;;;5.53;;
3443;SDS011;1736;52.068;6.968;2023-06-26T06:05:24;7.07;;;5.30;;
3443;SDS011;1736;52.068;6.968;2023-06-26T06:07:50;10.63;;;5.60;;
3443;SDS011;1736;52.068;6.968;2023-06-26T06:10:17;14.20;;;6.00;;
3443;SDS011;1736;52.068;6.968;2023-06-26T06:12:43;10.50;;;5.20;;
3443;SDS011;1736;52.068;6.968;2023-06-26T06:15:10;14.93;;;5.67;;
3443;SDS011;1736;52.068;6.968;2023-06-26T06:17:38;10.83;;;5.50;;
3443;SDS011;1736;52.068;6.968;2023-06-26T06:20:04;9.20;;;6.10;;
3443;SDS011;1736;52.068;6.968;2023-06-26T06:22:31;11.07;;;5.03;;
3443;SDS011;1736;52.068;6.968;2023-06-26T06:24:58;13.90;;;6.13;;
3443;SDS011;1736;52.068;6.968;2023-06-26T06:27:26;11.00;;;5.80;;
3443;SDS011;1736;52.068;6.968;2023-06-26T06:29:53;8.87;;;5.93;;
3443;SDS011;1736;52.068;6.968;2023-06-26T06:32:19;16.83;;;6.23;;
3443;SDS011;1736;52.068;6.968;2023-06-26T06:34:47;18.63;;;5.97;;
3443;SDS011;1736;52.068;6.968;2023-06-26T06:37:14;12.30;;;6.37;;
3443;SDS011;1736;52.068;6.968;2023-06-26T06:39:40;15.40;;;6.13;;
3443;SDS011;1736;52.068;6.968;2023-06-26T06:42:08;15.47;;;7.20;;
3443;SDS011;1736;52.068;6.968;2023-06-26T06:44:34;19.00;;;6.43;;
3443;SDS011;1736;52.068;6.968;2023-06-26T06:47:01;12.83;;;6.40;;
3443;SDS011;1736;52.068;6.968;2023-06-26T06:49:27;12.30;;;6.30;;
3443;SDS011;1736;52.068;6.968;2023-06-26T06:51:55;14.70;;;7.27;;
3443;SDS011;1736;52.068;6.968;2023-06-26T06:54:25;12.20;;;6.17;;
3443;SDS011;1736;52.068;6.968;2023-06-26T06:56:52;11.37;;;5.80;;
3443;SDS011;1736;52.068;6.968;2023-06-26T06:59:18;13.27;;;6.30;;
3443;SDS011;1736;52.068;6.968;2023-06-26T07:01:45;16.00;;;6.30;;
3443;SDS011;1736;52.068;6.968;2023-06-26T07:04:11;12.60;;;6.43;;
3443;SDS011;1736;52.068;6.968;2023-06-26T07:06:38;14.40;;;6.10;;
3443;SDS011;1736;52.068;6.968;2023-06-26T07:09:06;12.57;;;5.83;;
3443;SDS011;1736;52.068;6.968;2023-06-26T07:11:32;18.60;;;6.63;;
3443;SDS011;1736;52.068;6.968;2023-06-26T07:13:59;17.33;;;6.03;;
3443;SDS011;1736;52.068;6.968;2023-06-26T07:16:25;14.47;;;5.70;;
3443;SDS011;1736;52.068;6.968;2023-06-26T07:18:51;12.83;;;5.50;;
3443;SDS011;1736;52.068;6.968;2023-06-26T07:21:18;9.10;;;5.33;;
3443;SDS011;1736;52.068;6.968;2023-06-26T07:23:45;11.40;;;5.20;;
3443;SDS011;1736;52.068;6.968;2023-06-26T07:26:13;12.70;;;5.87;;
3443;SDS011;1736;52.068;6.968;2023-06-26T07:28:40;12.13;;;5.57;;
3443;SDS011;1736;52.068;6.968;2023-06-26T07:31:07;16.90;;;5.50;;
3443;SDS011;1736;52.068;6.968;2023-06-26T07:33:33;14.77;;;6.23;;
3443;SDS011;1736;52.068;6.968;2023-06-26T07:36:00;9.80;;;5.63;;
3443;SDS011;1736;52.068;6.968;2023-06-26T07:38:26;10.93;;;5.30;;
3443;SDS011;1736;52.068;6.968;2023-06-26T07:40:53;12.53;;;5.70;;
3443;SDS011;1736;52.068;6.968;2023-06-26T07:43:20;11.00;;;5.50;;
3443;SDS011;1736;52.068;6.968;2023-06-26T07:45:48;7.70;;;5.00;;
3443;SDS011;1736;52.068;6.968;2023-06-26T07:48:16;14.80;;;5.67;;
3443;SDS011;1736;52.068;6.968;2023-06-26T07:50:43;9.80;;;5.17;;
3443;SDS011;1736;52.068;6.968;2023-06-26T07:53:09;13.47;;;5.00;;
3443;SDS011;1736;52.068;6.968;2023-06-26T07:55:36;7.00;;;4.63;;
3443;SDS011;1736;52.068;6.968;2023-06-26T07:58:02;11.67;;;5.40;;
3443;SDS011;1736;52.068;6.968;2023-06-26T08:00:30;9.43;;;4.70;;
3443;SDS011;1736;52.068;6.968;2023-06-26T08:02:57;15.73;;;5.70;;
3443;SDS011;1736;52.068;6.968;2023-06-26T08:05:23;14.77;;;8.27;;
3443;SDS011;1736;52.068;6.968;2023-06-26T08:07:50;7.00;;;5.27;;
3443;SDS011;1736;52.068;6.968;2023-06-26T08:10:16;16.40;;;5.03;;
3443;SDS011;1736;52.068;6.968;2023-06-26T08:12:43;7.53;;;4.10;;
3443;SDS011;1736;52.068;6.968;2023-06-26T08:15:10;14.57;;;4.80;;
3443;SDS011;1736;52.068;6.968;2023-06-26T08:17:38;8.63;;;4.80;;
3443;SDS011;1736;52.068;6.968;2023-06-26T08:20:05;9.37;;;5.40;;
3443;SDS011;1736;52.068;6.968;2023-06-26T08:22:34;7.90;;;4.73;;
3443;SDS011;1736;52.068;6.968;2023-06-26T08:25:00;5.90;;;4.10;;
3443;SDS011;1736;52.068;6.968;2023-06-26T08:27:28;11.63;;;4.00;;
3443;SDS011;1736;52.068;6.968;2023-06-26T08:29:54;6.27;;;3.90;;
3443;SDS011;1736;52.068;6.968;2023-06-26T08:32:21;6.20;;;4.47;;
3443;SDS011;1736;52.068;6.968;2023-06-26T08:34:49;8.23;;;4.70;;
3443;SDS011;1736;52.068;6.968;2023-06-26T08:37:15;15.40;;;5.30;;
3443;SDS011;1736;52.068;6.968;2023-06-26T08:39:42;9.40;;;5.43;;
3443;SDS011;1736;52.068;6.968;2023-06-26T08:42:09;15.67;;;4.60;;
3443;SDS011;1736;52.068;6.968;2023-06-26T08:44:36;6.83;;;3.90;;
3443;SDS011;1736;52.068;6.968;2023-06-26T08:47:03;7.83;;;4.30;;
3443;SDS011;1736;52.068;6.968;2023-06-26T08:49:34;6.60;;;3.70;;
3443;SDS011;1736;52.068;6.968;2023-06-26T08:52:13;9.10;;;3.53;;
3443;SDS011;1736;52.068;6.968;2023-06-26T08:54:45;5.33;;;3.80;;
3443;SDS011;1736;52.068;6.968;2023-06-26T08:57:16;7.27;;;4.90;;
3443;SDS011;1736;52.068;6.968;2023-06-26T08:59:45;4.90;;;3.03;;
3443;SDS011;1736;52.068;6.968;2023-06-26T09:02:12;7.40;;;3.67;;
3443;SDS011;1736;52.068;6.968;2023-06-26T09:04:40;4.90;;;2.60;;
3443;SDS011;1736;52.068;6.968;2023-06-26T09:07:06;6.57;;;3.60;;
3443;SDS011;1736;52.068;6.968;2023-06-26T09:09:35;5.33;;;3.00;;
3443;SDS011;1736;52.068;6.968;2023-06-26T09:12:03;4.10;;;3.20;;
3443;SDS011;1736;52.068;6.968;2023-06-26T09:14:30;6.50;;;3.17;;
3443;SDS011;1736;52.068;6.968;2023-06-26T09:16:56;9.13;;;3.30;;
3443;SDS011;1736;52.068;6.968;2023-06-26T09:19:23;4.23;;;2.83;;
3443;SDS011;1736;52.068;6.968;2023-06-26T09:21:50;5.60;;;2.87;;
3443;SDS011;1736;52.068;6.968;2023-06-26T09:24:17;5.43;;;3.33;;
3443;SDS011;1736;52.068;6.968;2023-06-26T09:26:45;6.10;;;3.23;;
3443;SDS011;1736;52.068;6.968;2023-06-26T09:29:13;5.70;;;4.50;;
3443;SDS011;1736;52.068;6.968;2023-06-26T09:31:40;6.40;;;3.53;;
3443;SDS011;1736;52.068;6.968;2023-06-26T09:34:08;9.73;;;6.10;;
3443;SDS011;1736;52.068;6.968;2023-06-26T09:36:35;9.33;;;3.80;;
3443;SDS011;1736;52.068;6.968;2023-06-26T09:39:02;5.73;;;4.47;;
3443;SDS011;1736;52.068;6.968;2023-06-26T09:41:33;4.93;;;3.40;;
3443;SDS011;1736;52.068;6.968;2023-06-26T09:44:02;4.37;;;3.23;;
3443;SDS011;1736;52.068;6.968;2023-06-26T09:46:29;3.57;;;2.90;;
3443;SDS011;1736;52.068;6.968;2023-06-26T09:48:57;8.80;;;3.90;;
3443;SDS011;1736;52.068;6.968;2023-06-26T09:51:25;3.30;;;3.03;;
3443;SDS011;1736;52.068;6.968;2023-06-26T09:53:52;6.90;;;3.60;;
3443;SDS011;1736;52.068;6.968;2023-06-26T09:56:18;4.53;;;2.90;;
3443;SDS011;1736;52.068;6.968;2023-06-26T09:58:46;5.27;;;3.53;;
3443;SDS011;1736;52.068;6.968;2023-06-26T10:01:15;6.83;;;3.20;;
3443;SDS011;1736;52.068;6.968;2023-06-26T10:03:41;6.57;;;3.57;;
3443;SDS011;1736;52.068;6.968;2023-06-26T10:06:08;6.30;;;3.10;;
3443;SDS011;1736;52.068;6.968;2023-06-26T10:08:37;3.47;;;2.80;;
3443;SDS011;1736;52.068;6.968;2023-06-26T10:11:05;4.40;;;2.70;;
3443;SDS011;1736;52.068;6.968;2023-06-26T10:13:34;7.10;;;3.70;;
3443;SDS011;1736;52.068;6.968;2023-06-26T10:16:04;4.10;;;2.87;;
3443;SDS011;1736;52.068;6.968;2023-06-26T10:18:35;4.30;;;3.17;;
3443;SDS011;1736;52.068;6.968;2023-06-26T10:21:04;4.77;;;3.00;;
3443;SDS011;1736;52.068;6.968;2023-06-26T10:23:32;3.83;;;3.30;;
3443;SDS011;1736;52.068;6.968;2023-06-26T10:26:01;9.10;;;3.40;;
3443;SDS011;1736;52.068;6.968;2023-06-26T10:28:28;6.80;;;3.43;;
3443;SDS011;1736;52.068;6.968;2023-06-26T10:30:58;11.63;;;3.80;;
3443;SDS011;1736;52.068;6.968;2023-06-26T10:33:26;6.03;;;3.33;;
3443;SDS011;1736;52.068;6.968;2023-06-26T10:35:54;4.60;;;3.00;;
3443;SDS011;1736;52.068;6.968;2023-06-26T10:38:48;8.27;;;2.90;;
3443;SDS011;1736;52.068;6.968;2023-06-26T10:41:17;5.67;;;2.80;;
3443;SDS011;1736;52.068;6.968;2023-06-26T10:43:48;8.40;;;3.23;;
3443;SDS011;1736;52.068;6.968;2023-06-26T10:46:15;5.40;;;2.90;;
3443;SDS011;1736;52.068;6.968;2023-06-26T10:48:55;8.37;;;3.47;;
3443;SDS011;1736;52.068;6.968;2023-06-26T10:51:23;3.73;;;3.00;;
3443;SDS011;1736;52.068;6.968;2023-06-26T10:53:53;3.60;;;2.80;;
3443;SDS011;1736;52.068;6.968;2023-06-26T10:56:20;5.57;;;3.17;;
3443;SDS011;1736;52.068;6.968;2023-06-26T10:58:47;3.30;;;2.77;;
3443;SDS011;1736;52.068;6.968;2023-06-26T11:01:15;5.77;;;3.00;;
3443;SDS011;1736;52.068;6.968;2023-06-26T11:03:47;4.60;;;2.70;;
3443;SDS011;1736;52.068;6.968;2023-06-26T11:06:16;3.67;;;2.27;;
3443;SDS011;1736;52.068;6.968;2023-06-26T11:08:47;3.53;;;2.50;;
3443;SDS011;1736;52.068;6.968;2023-06-26T11:11:15;6.93;;;2.83;;
3443;SDS011;1736;52.068;6.968;2023-06-26T11:13:42;2.70;;;2.37;;
3443;SDS011;1736;52.068;6.968;2023-06-26T11:16:11;4.17;;;2.30;;
3443;SDS011;1736;52.068;6.968;2023-06-26T11:18:39;8.23;;;2.37;;
3443;SDS011;1736;52.068;6.968;2023-06-26T11:21:06;5.50;;;2.37;;
3443;SDS011;1736;52.068;6.968;2023-06-26T11:23:34;4.37;;;2.10;;
3443;SDS011;1736;52.068;6.968;2023-06-26T11:26:16;7.90;;;2.73;;
3443;SDS011;1736;52.068;6.968;2023-06-26T11:28:47;3.17;;;2.50;;
3443;SDS011;1736;52.068;6.968;2023-06-26T11:31:24;5.43;;;2.63;;
3443;SDS011;1736;52.068;6.968;2023-06-26T11:33:52;2.40;;;2.20;;
3443;SDS011;1736;52.068;6.968;2023-06-26T11:36:19;3.03;;;2.50;;
3443;SDS011;1736;52.068;6.968;2023-06-26T11:38:46;2.33;;;2.13;;
3443;SDS011;1736;52.068;6.968;2023-06-26T11:41:19;3.20;;;1.90;;
3443;SDS011;1736;52.068;6.968;2023-06-26T11:43:46;4.53;;;2.07;;
3443;SDS011;1736;52.068;6.968;2023-06-26T11:46:13;2.97;;;1.70;;
3443;SDS011;1736;52.068;6.968;2023-06-26T11:48:42;3.03;;;1.80;;
3443;SDS011;1736;52.068;6.968;2023-06-26T11:51:09;5.87;;;2.30;;
3443;SDS011;1736;52.068;6.968;2023-06-26T11:53:38;4.60;;;2.30;;
3443;SDS011;1736;52.068;6.968;2023-06-26T11:56:07;5.80;;;1.90;;
3443;SDS011;1736;52.068;6.968;2023-06-26T11:58:35;10.30;;;1.90;;
3443;SDS011;1736;52.068;6.968;2023-06-26T12:01:02;4.43;;;1.97;;
3443;SDS011;1736;52.068;6.968;2023-06-26T12:03:29;5.00;;;1.80;;
3443;SDS011;1736;52.068;6.968;2023-06-26T12:05:58;2.13;;;1.83;;
3443;SDS011;1736;52.068;6.968;2023-06-26T12:08:26;3.90;;;1.77;;
3443;SDS011;1736;52.068;6.968;2023-06-26T12:10:52;2.83;;;1.70;;
3443;SDS011;1736;52.068;6.968;2023-06-26T12:13:19;2.40;;;1.77;;
3443;SDS011;1736;52.068;6.968;2023-06-26T12:15:47;4.57;;;1.83;;
3443;SDS011;1736;52.068;6.968;2023-06-26T12:18:15;4.07;;;1.63;;
3443;SDS011;1736;52.068;6.968;2023-06-26T12:20:42;3.20;;;1.70;;
3443;SDS011;1736;52.068;6.968;2023-06-26T12:23:11;4.60;;;1.90;;
3443;SDS011;1736;52.068;6.968;2023-06-26T12:25:38;4.47;;;1.97;;
3443;SDS011;1736;52.068;6.968;2023-06-26T12:28:14;2.20;;;1.63;;
3443;SDS011;1736;52.068;6.968;2023-06-26T12:30:45;1.30;;;1.30;;
3443;SDS011;1736;52.068;6.968;2023-06-26T12:33:13;4.70;;;2.83;;
3443;SDS011;1736;52.068;6.968;2023-06-26T12:35:41;3.73;;;2.03;;
3443;SDS011;1736;52.068;6.968;2023-06-26T12:38:08;2.67;;;2.47;;
3443;SDS011;1736;52.068;6.968;2023-06-26T12:40:44;1.83;;;1.50;;
3443;SDS011;1736;52.068;6.968;2023-06-26T12:43:11;2.07;;;1.87;;
3443;SDS011;1736;52.068;6.968;2023-06-26T12:45:38;2.30;;;2.10;;
3443;SDS011;1736;52.068;6.968;2023-06-26T12:48:09;2.17;;;1.80;;
3443;SDS011;1736;52.068;6.968;2023-06-26T12:50:42;1.93;;;1.53;;
3443;SDS011;1736;52.068;6.968;2023-06-26T12:53:10;2.20;;;2.00;;
3443;SDS011;1736;52.068;6.968;2023-06-26T12:55:37;1.93;;;1.70;;
3443;SDS011;1736;52.068;6.968;2023-06-26T12:58:03;2.83;;;1.77;;
3443;SDS011;1736;52.068;6.968;2023-06-26T13:00:30;2.13;;;1.70;;
3443;SDS011;1736;52.068;6.968;2023-06-26T13:02:57;3.70;;;1.90;;
3443;SDS011;1736;52.068;6.968;2023-06-26T13:05:24;2.50;;;1.90;;
3443;SDS011;1736;52.068;6.968;2023-06-26T13:07:52;2.30;;;1.83;;
3443;SDS011;1736;52.068;6.968;2023-06-26T13:10:20;4.80;;;1.70;;
3443;SDS011;1736;52.068;6.968;2023-06-26T13:12:46;2.33;;;1.60;;
3443;SDS011;1736;52.068;6.968;2023-06-26T13:15:13;2.50;;;1.60;;
3443;SDS011;1736;52.068;6.968;2023-06-26T13:17:40;1.90;;;1.70;;
3443;SDS011;1736;52.068;6.968;2023-06-26T13:20:07;2.60;;;1.50;;
3443;SDS011;1736;52.068;6.968;2023-06-26T13:22:34;2.13;;;1.87;;
3443;SDS011;1736;52.068;6.968;2023-06-26T13:25:02;3.23;;;1.80;;
3443;SDS011;1736;52.068;6.968;2023-06-26T13:27:29;3.93;;;1.73;;
3443;SDS011;1736;52.068;6.968;2023-06-26T13:29:55;1.60;;;1.50;;
3443;SDS011;1736;52.068;6.968;2023-06-26T13:32:22;3.63;;;1.60;;
3443;SDS011;1736;52.068;6.968;2023-06-26T13:34:49;2.60;;;1.40;;
3443;SDS011;1736;52.068;6.968;2023-06-26T13:37:16;6.40;;;2.00;;
3443;SDS011;1736;52.068;6.968;2023-06-26T13:39:42;2.37;;;1.80;;
3443;SDS011;1736;52.068;6.968;2023-06-26T13:42:15;9.27;;;2.00;;
3443;SDS011;1736;52.068;6.968;2023-06-26T13:44:42;4.57;;;1.90;;
3443;SDS011;1736;52.068;6.968;2023-06-26T13:47:10;2.77;;;1.50;;
3443;SDS011;1736;52.068;6.968;2023-06-26T13:49:39;1.80;;;1.50;;
3443;SDS011;1736;52.068;6.968;2023-06-26T13:52:05;1.77;;;1.60;;
3443;SDS011;1736;52.068;6.968;2023-06-26T13:54:33;1.93;;;1.70;;
3443;SDS011;1736;52.068;6.968;2023-06-26T13:57:00;1.73;;;1.63;;
3443;SDS011;1736;52.068;6.968;2023-06-26T13:59:28;3.20;;;1.80;;
3443;SDS011;1736;52.068;6.968;2023-06-26T14:01:55;2.20;;;1.60;;
3443;SDS011;1736;52.068;6.968;2023-06-26T14:04:21;4.40;;;2.10;;
3443;SDS011;1736;52.068;6.968;2023-06-26T14:06:48;2.53;;;1.50;;
3443;SDS011;1736;52.068;6.968;2023-06-26T14:09:15;8.60;;;1.90;;
3443;SDS011;1736;52.068;6.968;2023-06-26T14:11:41;3.13;;;1.57;;
3443;SDS011;1736;52.068;6.968;2023-06-26T14:14:09;3.20;;;1.60;;
3443;SDS011;1736;52.068;6.968;2023-06-26T14:16:37;4.00;;;1.50;;
3443;SDS011;1736;52.068;6.968;2023-06-26T14:19:05;4.20;;;1.50;;
3443;SDS011;1736;52.068;6.968;2023-06-26T14:21:31;4.87;;;1.83;;
3443;SDS011;1736;52.068;6.968;2023-06-26T14:23:58;2.23;;;1.80;;
3443;SDS011;1736;52.068;6.968;2023-06-26T14:26:25;3.20;;;1.53;;
3443;SDS011;1736;52.068;6.968;2023-06-26T14:28:51;6.13;;;2.13;;
3443;SDS011;1736;52.068;6.968;2023-06-26T14:31:18;1.77;;;1.67;;
3443;SDS011;1736;52.068;6.968;2023-06-26T14:33:46;3.13;;;1.87;;
3443;SDS011;1736;52.068;6.968;2023-06-26T14:36:12;4.03;;;1.77;;
3443;SDS011;1736;52.068;6.968;2023-06-26T14:38:39;6.87;;;1.60;;
3443;SDS011;1736;52.068;6.968;2023-06-26T14:41:05;6.97;;;1.50;;
3443;SDS011;1736;52.068;6.968;2023-06-26T14:43:32;4.83;;;1.60;;
3443;SDS011;1736;52.068;6.968;2023-06-26T14:45:58;1.80;;;1.70;;
3443;SDS011;1736;52.068;6.968;2023-06-26T14:48:25;8.50;;;2.17;;
3443;SDS011;1736;52.068;6.968;2023-06-26T14:50:53;2.97;;;1.30;;
3443;SDS011;1736;52.068;6.968;2023-06-26T14:53:20;2.23;;;1.63;;
3443;SDS011;1736;52.068;6.968;2023-06-26T14:55:46;3.23;;;1.50;;
3443;SDS011;1736;52.068;6.968;2023-06-26T14:58:13;3.43;;;1.67;;
3443;SDS011;1736;52.068;6.968;2023-06-26T15:00:39;2.17;;;1.50;;
3443;SDS011;1736;52.068;6.968;2023-06-26T15:03:06;4.07;;;2.20;;
3443;SDS011;1736;52.068;6.968;2023-06-26T15:05:32;1.90;;;1.70;;
3443;SDS011;1736;52.068;6.968;2023-06-26T15:08:00;4.17;;;2.00;;
3443;SDS011;1736;52.068;6.968;2023-06-26T15:10:26;2.30;;;2.10;;